Time;durP1;ratioP1;P1;durP2;ratioP2;P2;SDS_P1;SDS_P2;PMS_P1;PMS_P2;Temp;Humidity;BMP_temperature;BMP_pressure;BME280_temperature;BME280_humidity;BME280_pressure;Samples;Min_cycle;Max_cycle;Signal;HPM_P1;HPM_P2
2022/10/01 00:00:18;;;;;;;5.85;3.42;;;;;;;;;;4896763;29;20035;-59
2022/10/01 00:02:44;;;;;;;6.03;3.47;;;;;;;;;;4897607;29;20029;-59
2022/10/01 00:05:10;;;;;;;8.73;3.50;;;;;;;;;;4898128;29;20059;-58
2022/10/01 00:07:43;;;;;;;5.95;3.35;;;;;;;;;;4894835;29;20490;-58
2022/10/01 00:10:11;;;;;;;6.43;3.55;;;;;;;;;;4898800;29;20125;-59
2022/10/01 00:12:38;;;;;;;5.20;3.53;;;;;;;;;;4893170;29;20044;-59
2022/10/01 00:15:08;;;;;;;8.27;3.78;;;;;;;;;;4898742;29;20170;-59
2022/10/01 00:17:35;;;;;;;7.03;3.47;;;;;;;;;;4896356;29;20168;-59
2022/10/01 00:20:02;;;;;;;5.53;3.35;;;;;;;;;;4898926;29;20044;-57
2022/10/01 00:22:30;;;;;;;5.78;3.58;;;;;;;;;;4896638;29;20039;-59
2022/10/01 00:24:56;;;;;;;5.63;3.40;;;;;;;;;;4898066;29;20040;-58
2022/10/01 00:27:22;;;;;;;6.05;3.35;;;;;;;;;;4881882;29;20099;-58
2022/10/01 00:29:48;;;;;;;5.53;3.50;;;;;;;;;;4897960;29;20039;-57
2022/10/01 00:32:14;;;;;;;6.63;3.70;;;;;;;;;;4894698;29;20044;-58
2022/10/01 00:34:39;;;;;;;5.63;3.50;;;;;;;;;;4880844;29;20033;-58
2022/10/01 00:37:05;;;;;;;5.65;3.50;;;;;;;;;;4897618;29;20142;-59
2022/10/01 00:39:30;;;;;;;7.03;3.28;;;;;;;;;;4897218;29;20140;-58
2022/10/01 00:41:55;;;;;;;4.60;3.22;;;;;;;;;;4896579;29;20497;-58
2022/10/01 00:44:36;;;;;;;6.18;3.70;;;;;;;;;;4896141;29;20037;-58
2022/10/01 00:47:15;;;;;;;7.33;4.13;;;;;;;;;;4898195;29;20032;-56
2022/10/01 00:49:42;;;;;;;5.53;3.15;;;;;;;;;;4894365;29;20107;-58
2022/10/01 00:52:14;;;;;;;6.70;4.30;;;;;;;;;;4898553;29;20056;-60
2022/10/01 00:54:48;;;;;;;7.57;4.40;;;;;;;;;;4896505;29;20548;-60
2022/10/01 00:57:15;;;;;;;8.30;4.78;;;;;;;;;;4897110;29;20060;-60
2022/10/01 00:59:42;;;;;;;7.78;5.22;;;;;;;;;;4895981;29;20044;-60
2022/10/01 01:02:07;;;;;;;7.07;5.20;;;;;;;;;;4897953;29;20047;-60
2022/10/01 01:04:32;;;;;;;9.38;5.65;;;;;;;;;;4893399;29;20048;-59
2022/10/01 01:07:01;;;;;;;10.68;5.63;;;;;;;;;;4896621;29;20043;-60
2022/10/01 01:09:35;;;;;;;7.82;5.53;;;;;;;;;;4895924;29;20092;-60
2022/10/01 01:12:31;;;;;;;9.80;5.45;;;;;;;;;;4891418;29;20040;-60
2022/10/01 01:15:10;;;;;;;9.48;5.68;;;;;;;;;;4896306;29;20043;-60
2022/10/01 01:17:57;;;;;;;9.65;6.13;;;;;;;;;;4896864;29;20041;-60
2022/10/01 01:20:48;;;;;;;8.63;6.10;;;;;;;;;;4895831;29;20036;-60
2022/10/01 01:23:14;;;;;;;11.50;5.43;;;;;;;;;;4874862;29;20052;-60
2022/10/01 01:26:06;;;;;;;7.88;5.78;;;;;;;;;;4894743;29;20446;-60
2022/10/01 01:28:37;;;;;;;10.55;6.35;;;;;;;;;;4893740;29;20065;-59
2022/10/01 01:31:06;;;;;;;;;;;;;;;;;;4896150;29;20037;-61
2022/10/01 01:33:36;;;;;;;9.85;6.30;;;;;;;;;;4895526;29;19966;-59
2022/10/01 01:36:07;;;;;;;10.43;6.63;;;;;;;;;;4896527;29;20028;-61
2022/10/01 01:38:37;;;;;;;9.07;6.40;;;;;;;;;;4896486;29;20497;-61
2022/10/01 01:41:05;;;;;;;11.13;6.85;;;;;;;;;;4895413;29;20032;-60
2022/10/01 01:43:36;;;;;;;10.35;6.88;;;;;;;;;;4895433;29;20044;-59
2022/10/01 01:46:04;;;;;;;8.30;5.35;;;;;;;;;;4895488;29;20040;-60
2022/10/01 01:48:35;;;;;;;9.88;7.00;;;;;;;;;;4878509;29;20514;-59
2022/10/01 01:51:11;;;;;;;12.65;6.85;;;;;;;;;;4897220;29;20048;-61
2022/10/01 01:53:37;;;;;;;9.00;6.40;;;;;;;;;;4895933;29;20120;-60
2022/10/01 01:56:04;;;;;;;7.72;5.38;;;;;;;;;;4894805;29;20184;-60
2022/10/01 01:58:32;;;;;;;11.50;6.78;;;;;;;;;;4894495;29;20088;-59
2022/10/01 02:00:57;;;;;;;11.15;7.18;;;;;;;;;;4897234;29;20036;-61
2022/10/01 02:03:25;;;;;;;9.10;6.45;;;;;;;;;;4893564;29;20043;-60
2022/10/01 02:06:09;;;;;;;10.23;6.55;;;;;;;;;;4895874;29;20148;-60
2022/10/01 02:08:58;;;;;;;9.02;6.20;;;;;;;;;;4895457;29;20033;-59
2022/10/01 02:11:41;;;;;;;9.85;6.72;;;;;;;;;;4894688;29;20486;-60
2022/10/01 02:14:22;;;;;;;12.25;6.68;;;;;;;;;;4896973;29;20163;-60
2022/10/01 02:17:00;;;;;;;14.32;6.65;;;;;;;;;;4893417;29;20063;-60
2022/10/01 02:19:40;;;;;;;10.48;7.00;;;;;;;;;;4897798;29;20095;-62
2022/10/01 02:22:10;;;;;;;9.70;6.60;;;;;;;;;;4892954;29;20051;-60
2022/10/01 02:24:39;;;;;;;13.15;6.70;;;;;;;;;;4894739;29;20394;-61
2022/10/01 02:27:24;;;;;;;11.32;6.38;;;;;;;;;;4895982;29;20072;-61
2022/10/01 02:29:51;;;;;;;9.25;6.57;;;;;;;;;;4894946;29;20486;-61
2022/10/01 02:32:18;;;;;;;12.00;7.53;;;;;;;;;;4897455;29;20139;-61
2022/10/01 02:34:46;;;;;;;13.25;7.10;;;;;;;;;;4892682;29;20092;-61
2022/10/01 02:37:12;;;;;;;9.40;6.75;;;;;;;;;;4896222;29;20430;-60
2022/10/01 02:39:40;;;;;;;10.23;6.95;;;;;;;;;;4893894;29;20080;-60
2022/10/01 02:42:08;;;;;;;11.88;7.10;;;;;;;;;;4893755;29;20047;-60
2022/10/01 02:44:39;;;;;;;9.20;4.60;;;;;;;;;;4894488;29;20040;-61
2022/10/01 02:47:27;;;;;;;11.53;6.93;;;;;;;;;;4893114;29;20064;-61
2022/10/01 02:49:53;;;;;;;11.05;6.50;;;;;;;;;;4895390;29;20079;-62
2022/10/01 02:52:33;;;;;;;10.35;6.95;;;;;;;;;;4895231;29;20386;-61
2022/10/01 02:55:27;;;;;;;8.52;5.90;;;;;;;;;;4895954;29;20032;-62
2022/10/01 02:57:54;;;;;;;12.10;7.07;;;;;;;;;;4890908;29;20140;-61
2022/10/01 03:00:22;;;;;;;11.20;7.10;;;;;;;;;;4895816;29;20040;-61
2022/10/01 03:02:48;;;;;;;9.82;6.63;;;;;;;;;;4878031;29;20036;-61
2022/10/01 03:05:15;;;;;;;10.50;6.57;;;;;;;;;;4894299;29;20048;-61
2022/10/01 03:07:42;;;;;;;9.45;6.50;;;;;;;;;;4893821;29;20092;-61
2022/10/01 03:10:09;;;;;;;11.70;7.07;;;;;;;;;;4891571;29;20076;-61
2022/10/01 03:12:35;;;;;;;9.05;6.45;;;;;;;;;;4889728;29;20033;-60
2022/10/01 03:15:03;;;;;;;12.15;7.32;;;;;;;;;;4893822;29;20055;-60
2022/10/01 03:17:29;;;;;;;10.57;6.82;;;;;;;;;;4891665;29;20040;-59
2022/10/01 03:19:54;;;;;;;8.55;5.93;;;;;;;;;;4893856;29;20071;-63
2022/10/01 03:22:23;;;;;;;10.25;6.68;;;;;;;;;;4876932;29;20044;-60
2022/10/01 03:24:50;;;;;;;9.02;6.32;;;;;;;;;;4894763;29;20636;-62
2022/10/01 03:27:16;;;;;;;9.70;6.50;;;;;;;;;;4893923;29;20131;-63
2022/10/01 03:29:42;;;;;;;10.85;6.70;;;;;;;;;;4894950;29;20041;-61
2022/10/01 03:32:08;;;;;;;9.82;5.78;;;;;;;;;;4893495;29;20055;-61
2022/10/01 03:34:33;;;;;;;9.98;6.28;;;;;;;;;;4894456;29;20462;-60
2022/10/01 03:36:58;;;;;;;8.00;5.35;;;;;;;;;;4863949;29;20095;-61
2022/10/01 03:39:24;;;;;;;8.00;5.38;;;;;;;;;;4896342;29;20426;-61
2022/10/01 03:41:49;;;;;;;8.15;5.18;;;;;;;;;;4891945;29;20125;-60
2022/10/01 03:44:15;;;;;;;8.88;5.35;;;;;;;;;;4894714;29;20092;-60
2022/10/01 03:46:40;;;;;;;14.85;5.60;;;;;;;;;;4890527;29;20032;-60
2022/10/01 03:49:05;;;;;;;9.25;5.70;;;;;;;;;;4896481;29;20484;-61
2022/10/01 03:51:31;;;;;;;9.48;6.72;;;;;;;;;;4878020;29;20096;-60
2022/10/01 03:53:57;;;;;;;14.02;5.75;;;;;;;;;;4895348;29;20520;-61
2022/10/01 03:56:23;;;;;;;7.47;4.93;;;;;;;;;;4894276;29;20115;-61
2022/10/01 03:58:49;;;;;;;8.45;5.72;;;;;;;;;;4879896;29;20111;-61
2022/10/01 04:01:14;;;;;;;8.93;6.03;;;;;;;;;;4884561;29;20127;-61
2022/10/01 04:03:40;;;;;;;8.27;5.45;;;;;;;;;;4894556;29;20037;-61
2022/10/01 04:06:06;;;;;;;8.90;5.55;;;;;;;;;;4893331;29;20048;-63
2022/10/01 04:08:31;;;;;;;7.55;4.78;;;;;;;;;;4895644;29;20096;-61
2022/10/01 04:10:57;;;;;;;5.65;3.78;;;;;;;;;;4883813;29;20085;-61
2022/10/01 04:13:22;;;;;;;9.68;4.38;;;;;;;;;;4895412;29;20434;-63
2022/10/01 04:15:48;;;;;;;6.28;4.35;;;;;;;;;;4891111;29;20639;-62
2022/10/01 04:18:17;;;;;;;8.48;4.35;;;;;;;;;;4894132;29;20036;-63
2022/10/01 04:20:43;;;;;;;5.57;4.35;;;;;;;;;;4895102;29;20025;-60
2022/10/01 04:23:08;;;;;;;7.32;5.10;;;;;;;;;;4895417;29;20454;-61
2022/10/01 04:25:34;;;;;;;6.45;4.80;;;;;;;;;;4894343;29;20457;-63
2022/10/01 04:28:03;;;;;;;5.88;3.58;;;;;;;;;;4895727;29;20040;-63
2022/10/01 04:30:34;;;;;;;7.38;4.03;;;;;;;;;;4894123;29;20052;-60
2022/10/01 04:32:59;;;;;;;6.43;4.47;;;;;;;;;;4879654;29;20025;-62
2022/10/01 04:35:25;;;;;;;5.82;4.22;;;;;;;;;;4895407;29;20527;-62
2022/10/01 04:37:58;;;;;;;5.43;3.80;;;;;;;;;;4894264;29;20036;-61
2022/10/01 04:40:24;;;;;;;5.32;3.60;;;;;;;;;;4896162;29;20037;-62
2022/10/01 04:42:50;;;;;;;5.15;3.30;;;;;;;;;;4893307;29;20031;-62
2022/10/01 04:45:15;;;;;;;5.03;3.45;;;;;;;;;;4896027;29;20115;-62
2022/10/01 04:47:49;;;;;;;6.10;3.75;;;;;;;;;;4898697;29;20525;-63
2022/10/01 04:50:16;;;;;;;5.80;3.90;;;;;;;;;;4897932;29;20044;-65
2022/10/01 04:52:42;;;;;;;5.97;3.45;;;;;;;;;;4899151;29;20060;-62
2022/10/01 04:55:08;;;;;;;3.90;3.05;;;;;;;;;;4898203;29;20064;-62
2022/10/01 04:57:35;;;;;;;3.92;3.00;;;;;;;;;;4898619;29;20397;-62
2022/10/01 05:00:01;;;;;;;3.47;2.75;;;;;;;;;;4897453;29;20048;-63
2022/10/01 05:02:28;;;;;;;3.67;2.60;;;;;;;;;;4898173;29;20111;-61
2022/10/01 05:04:53;;;;;;;4.35;2.78;;;;;;;;;;4897921;29;20052;-61
2022/10/01 05:07:19;;;;;;;4.30;2.72;;;;;;;;;;4897982;29;20059;-62
2022/10/01 05:09:44;;;;;;;4.07;3.00;;;;;;;;;;4890168;29;20037;-62
2022/10/01 05:12:09;;;;;;;3.38;2.60;;;;;;;;;;4883457;29;20052;-62
2022/10/01 05:14:35;;;;;;;4.35;3.05;;;;;;;;;;4897184;29;20485;-61
2022/10/01 05:17:00;;;;;;;3.55;2.53;;;;;;;;;;4898724;29;20119;-61
2022/10/01 05:19:28;;;;;;;4.25;2.85;;;;;;;;;;4898062;29;20044;-63
2022/10/01 05:21:54;;;;;;;4.20;2.63;;;;;;;;;;4898470;29;20040;-63
2022/10/01 05:24:20;;;;;;;4.30;2.88;;;;;;;;;;4896715;29;20164;-63
2022/10/01 05:26:45;;;;;;;4.43;3.08;;;;;;;;;;4881226;29;20378;-65
2022/10/01 05:29:11;;;;;;;4.38;3.13;;;;;;;;;;4894610;29;20127;-62
2022/10/01 05:31:36;;;;;;;4.90;3.30;;;;;;;;;;4879208;29;20041;-63
2022/10/01 05:34:02;;;;;;;4.18;2.97;;;;;;;;;;4897894;29;20117;-61
2022/10/01 05:36:27;;;;;;;2.92;2.33;;;;;;;;;;4897515;29;20040;-61
2022/10/01 05:38:53;;;;;;;6.40;3.15;;;;;;;;;;4896540;29;20149;-63
2022/10/01 05:41:18;;;;;;;4.82;3.10;;;;;;;;;;4897288;29;20134;-62
2022/10/01 05:43:47;;;;;;;3.97;2.92;;;;;;;;;;4896815;29;20051;-61
2022/10/01 05:46:12;;;;;;;4.78;2.90;;;;;;;;;;4898628;29;20036;-61
2022/10/01 05:48:38;;;;;;;4.85;2.67;;;;;;;;;;4891928;29;20044;-63
2022/10/01 05:51:05;;;;;;;4.45;2.72;;;;;;;;;;4880463;29;20116;-62
2022/10/01 05:53:31;;;;;;;4.35;2.78;;;;;;;;;;4897824;29;20390;-61
2022/10/01 05:56:01;;;;;;;5.28;2.30;;;;;;;;;;4896855;29;20496;-63
2022/10/01 05:58:27;;;;;;;3.70;2.70;;;;;;;;;;4896418;29;20056;-62
2022/10/01 06:00:54;;;;;;;4.93;2.60;;;;;;;;;;4897511;29;20029;-63
2022/10/01 06:03:20;;;;;;;4.40;2.70;;;;;;;;;;4895175;29;20064;-63
2022/10/01 06:05:46;;;;;;;5.57;2.10;;;;;;;;;;4880029;29;20430;-61
2022/10/01 06:08:11;;;;;;;3.55;2.70;;;;;;;;;;4895387;29;20485;-62
2022/10/01 06:10:38;;;;;;;4.22;2.92;;;;;;;;;;4882105;29;20065;-62
2022/10/01 06:13:04;;;;;;;9.73;2.83;;;;;;;;;;4895253;29;20041;-65
2022/10/01 06:15:33;;;;;;;4.10;2.90;;;;;;;;;;4897312;29;20033;-61
2022/10/01 06:18:05;;;;;;;4.65;3.17;;;;;;;;;;4896981;29;20084;-63
2022/10/01 06:20:31;;;;;;;5.03;3.17;;;;;;;;;;4897008;29;20037;-61
2022/10/01 06:22:57;;;;;;;5.47;3.15;;;;;;;;;;4896337;29;20036;-63
2022/10/01 06:25:23;;;;;;;5.05;3.08;;;;;;;;;;4896786;29;20041;-62
2022/10/01 06:27:55;;;;;;;4.50;2.90;;;;;;;;;;4879985;29;20210;-63
2022/10/01 06:30:21;;;;;;;3.50;2.20;;;;;;;;;;4895951;29;20032;-63
2022/10/01 06:32:46;;;;;;;4.53;2.78;;;;;;;;;;4893796;29;20056;-64
2022/10/01 06:35:12;;;;;;;5.47;2.40;;;;;;;;;;4895127;29;20044;-64
2022/10/01 06:37:37;;;;;;;4.60;3.03;;;;;;;;;;4893884;29;20033;-63
2022/10/01 06:40:04;;;;;;;3.88;2.67;;;;;;;;;;4897741;29;20080;-62
2022/10/01 06:42:29;;;;;;;3.45;2.35;;;;;;;;;;4895756;29;20045;-60
2022/10/01 06:44:55;;;;;;;3.45;1.95;;;;;;;;;;4897064;29;20115;-64
2022/10/01 06:47:20;;;;;;;4.50;2.45;;;;;;;;;;4896378;29;20386;-62
2022/10/01 06:49:45;;;;;;;3.20;2.30;;;;;;;;;;4894204;29;20079;-62
2022/10/01 06:54:55;;;;;;;3.65;2.35;;;;;;;;;;4896558;29;20032;-61
2022/10/01 06:57:20;;;;;;;3.28;2.35;;;;;;;;;;4897130;29;20040;-61
2022/10/01 06:59:46;;;;;;;3.83;1.98;;;;;;;;;;4894802;29;20861;-66
2022/10/01 07:02:27;;;;;;;3.17;2.08;;;;;;;;;;4894526;29;20048;-64
2022/10/01 07:04:57;;;;;;;3.40;2.22;;;;;;;;;;4894149;29;20176;-63
2022/10/01 07:07:23;;;;;;;2.97;2.30;;;;;;;;;;4884055;29;20104;-64
2022/10/01 07:09:48;;;;;;;2.95;1.85;;;;;;;;;;4879259;29;20179;-61
2022/10/01 07:12:14;;;;;;;4.43;2.28;;;;;;;;;;4894328;29;20089;-63
2022/10/01 07:14:39;;;;;;;4.13;2.25;;;;;;;;;;4895804;29;20385;-61
2022/10/01 07:17:04;;;;;;;2.60;2.15;;;;;;;;;;4893365;29;20047;-61
2022/10/01 07:19:30;;;;;;;2.63;2.10;;;;;;;;;;4896391;29;20083;-59
2022/10/01 07:21:56;;;;;;;2.95;2.30;;;;;;;;;;4894386;29;20031;-62
2022/10/01 07:24:21;;;;;;;2.95;2.10;;;;;;;;;;4896044;29;20388;-61
2022/10/01 07:26:49;;;;;;;4.00;2.50;;;;;;;;;;4894040;29;20048;-63
2022/10/01 07:29:15;;;;;;;3.25;2.30;;;;;;;;;;4895923;29;20482;-62
2022/10/01 07:31:40;;;;;;;2.70;2.10;;;;;;;;;;4895630;29;20062;-61
2022/10/01 07:34:06;;;;;;;3.13;2.15;;;;;;;;;;4895881;29;20043;-61
2022/10/01 07:36:32;;;;;;;4.32;2.40;;;;;;;;;;4896126;29;20029;-62
2022/10/01 07:39:00;;;;;;;5.18;2.00;;;;;;;;;;4895802;29;20397;-61
2022/10/01 07:41:26;;;;;;;3.17;2.50;;;;;;;;;;4893987;29;20490;-61
2022/10/01 07:43:51;;;;;;;3.85;2.60;;;;;;;;;;4894878;29;20113;-64
2022/10/01 07:46:16;;;;;;;2.88;2.20;;;;;;;;;;4894990;29;20124;-64
2022/10/01 07:48:45;;;;;;;3.92;2.63;;;;;;;;;;4894926;29;20117;-65
2022/10/01 07:51:10;;;;;;;3.47;2.40;;;;;;;;;;4893638;29;20041;-63
2022/10/01 07:53:35;;;;;;;3.97;2.40;;;;;;;;;;4894437;29;20052;-62
2022/10/01 07:56:02;;;;;;;3.67;2.45;;;;;;;;;;4896643;29;20385;-61
2022/10/01 07:58:27;;;;;;;3.20;2.50;;;;;;;;;;4896407;29;20068;-63
2022/10/01 08:00:57;;;;;;;5.00;2.90;;;;;;;;;;4889817;29;20079;-62
2022/10/01 08:03:25;;;;;;;4.68;2.72;;;;;;;;;;4896488;29;20036;-63
2022/10/01 08:05:52;;;;;;;4.32;3.03;;;;;;;;;;4893193;29;20538;-64
2022/10/01 08:08:18;;;;;;;5.35;3.40;;;;;;;;;;4893035;29;20036;-63
2022/10/01 08:10:43;;;;;;;6.80;3.60;;;;;;;;;;4895369;29;20188;-64
2022/10/01 08:13:14;;;;;;;5.45;3.63;;;;;;;;;;4894864;29;20041;-64
2022/10/01 08:15:43;;;;;;;;;;;;;;;;;;4895074;29;20092;-64
2022/10/01 08:18:10;;;;;;;6.07;3.47;;;;;;;;;;4892275;29;20285;-64
2022/10/01 08:20:37;;;;;;;4.85;3.35;;;;;;;;;;4896804;29;20160;-63
2022/10/01 08:23:09;;;;;;;5.40;3.83;;;;;;;;;;4898154;29;20502;-64
2022/10/01 08:25:34;;;;;;;6.28;3.90;;;;;;;;;;4897143;29;20033;-64
2022/10/01 08:28:00;;;;;;;5.25;3.85;;;;;;;;;;4898890;29;20043;-62
2022/10/01 08:30:26;;;;;;;4.80;3.17;;;;;;;;;;4896181;29;20122;-62
2022/10/01 08:32:59;;;;;;;5.63;3.58;;;;;;;;;;4897210;29;20188;-63
2022/10/01 08:35:26;;;;;;;4.85;3.08;;;;;;;;;;4898421;29;20041;-63
2022/10/01 08:37:52;;;;;;;5.70;3.63;;;;;;;;;;4898223;29;20385;-63
2022/10/01 08:40:20;;;;;;;9.30;4.25;;;;;;;;;;4895955;29;20489;-62
2022/10/01 08:43:07;;;;;;;4.50;3.10;;;;;;;;;;4896690;29;20038;-65
2022/10/01 08:45:39;;;;;;;5.95;3.80;;;;;;;;;;4897294;29;20048;-63
2022/10/01 08:48:31;;;;;;;8.52;4.70;;;;;;;;;;4897712;29;20126;-63
2022/10/01 08:51:06;;;;;;;7.63;4.65;;;;;;;;;;4886358;29;20049;-62
2022/10/01 08:53:34;;;;;;;7.10;4.70;;;;;;;;;;4895011;29;20398;-60
2022/10/01 08:56:02;;;;;;;7.50;4.75;;;;;;;;;;4896791;29;20407;-60
2022/10/01 08:58:33;;;;;;;7.50;4.97;;;;;;;;;;4895350;29;20052;-62
2022/10/01 09:00:59;;;;;;;8.27;4.82;;;;;;;;;;4895313;29;20033;-60
2022/10/01 09:03:29;;;;;;;7.88;5.07;;;;;;;;;;4892413;29;20043;-63
2022/10/01 09:06:21;;;;;;;7.88;5.38;;;;;;;;;;4895207;29;20049;-63
2022/10/01 09:09:05;;;;;;;10.98;4.80;;;;;;;;;;4896702;29;20540;-63
2022/10/01 09:11:58;;;;;;;8.50;5.63;;;;;;;;;;4896668;29;20036;-61
2022/10/01 09:14:53;;;;;;;7.93;5.35;;;;;;;;;;4896169;29;20048;-64
2022/10/01 09:17:29;;;;;;;9.40;4.93;;;;;;;;;;4899004;29;20040;-65
2022/10/01 09:20:09;;;;;;;9.07;5.88;;;;;;;;;;4895527;29;20043;-65
2022/10/01 09:22:45;;;;;;;8.65;5.68;;;;;;;;;;4895574;29;20120;-65
2022/10/01 09:25:15;;;;;;;9.48;6.15;;;;;;;;;;4898148;29;20036;-66
2022/10/01 09:27:41;;;;;;;10.73;6.13;;;;;;;;;;4890588;29;20409;-68
2022/10/01 09:30:22;;;;;;;8.82;6.30;;;;;;;;;;4887266;29;20029;-69
2022/10/01 09:32:58;;;;;;;11.05;6.72;;;;;;;;;;4894312;29;20044;-67
2022/10/01 09:35:43;;;;;;;9.43;6.13;;;;;;;;;;4895724;29;20504;-67
2022/10/01 09:38:29;;;;;;;10.45;6.10;;;;;;;;;;4896682;29;20076;-69
2022/10/01 09:40:56;;;;;;;7.90;6.07;;;;;;;;;;4897487;29;20068;-68
2022/10/01 09:43:31;;;;;;;9.77;6.15;;;;;;;;;;4896437;29;20036;-64
2022/10/01 09:45:57;;;;;;;11.27;6.57;;;;;;;;;;4893750;29;20036;-67
2022/10/01 09:48:33;;;;;;;8.95;6.40;;;;;;;;;;4894741;29;20041;-68
2022/10/01 09:51:11;;;;;;;9.15;6.05;;;;;;;;;;4878762;29;20040;-70
2022/10/01 09:53:50;;;;;;;9.68;6.22;;;;;;;;;;4892427;29;20124;-71
2022/10/01 09:56:41;;;;;;;9.70;6.07;;;;;;;;;;4895932;29;20038;-69
2022/10/01 09:59:14;;;;;;;9.00;6.18;;;;;;;;;;4893531;29;20509;-67
2022/10/01 10:01:50;;;;;;;9.30;5.95;;;;;;;;;;4895484;29;20075;-67
2022/10/01 10:04:20;;;;;;;9.45;5.85;;;;;;;;;;4893109;29;20033;-66
2022/10/01 10:06:46;;;;;;;8.57;6.15;;;;;;;;;;4867765;29;20056;-65
2022/10/01 10:09:17;;;;;;;9.05;6.25;;;;;;;;;;4894765;29;20050;-64
2022/10/01 10:11:43;;;;;;;13.70;6.07;;;;;;;;;;4893145;29;20033;-64
2022/10/01 10:14:19;;;;;;;9.75;5.65;;;;;;;;;;4896537;29;20088;-64
2022/10/01 10:16:46;;;;;;;9.27;5.70;;;;;;;;;;4879432;29;20036;-64
2022/10/01 10:19:24;;;;;;;9.43;5.90;;;;;;;;;;4904339;29;20037;-65
2022/10/01 10:21:52;;;;;;;8.32;4.50;;;;;;;;;;4896055;29;20095;-65
2022/10/01 10:24:30;;;;;;;8.02;5.30;;;;;;;;;;4897912;29;20466;-65
2022/10/01 10:26:57;;;;;;;9.80;5.40;;;;;;;;;;4896523;29;20051;-63
2022/10/01 10:29:36;;;;;;;6.80;4.95;;;;;;;;;;4897858;29;20478;-62
2022/10/01 10:32:06;;;;;;;6.55;4.50;;;;;;;;;;4895412;29;20041;-62
2022/10/01 10:34:39;;;;;;;8.73;4.63;;;;;;;;;;4896061;29;20039;-64
2022/10/01 10:37:12;;;;;;;6.15;4.25;;;;;;;;;;4897062;29;20451;-62
2022/10/01 10:39:40;;;;;;;6.50;4.50;;;;;;;;;;4896262;29;20375;-61
2022/10/01 10:42:07;;;;;;;8.10;4.10;;;;;;;;;;4896684;29;20041;-63
2022/10/01 10:44:38;;;;;;;6.07;3.40;;;;;;;;;;4896589;29;20029;-62
2022/10/01 10:47:08;;;;;;;7.18;3.70;;;;;;;;;;4897549;29;20410;-71
2022/10/01 10:49:50;;;;;;;4.47;2.75;;;;;;;;;;4889949;29;20029;-70
2022/10/01 10:52:28;;;;;;;5.72;2.63;;;;;;;;;;4867978;29;20049;-66
2022/10/01 10:54:54;;;;;;;2.58;1.98;;;;;;;;;;4861566;29;20039;-65
2022/10/01 10:57:27;;;;;;;2.95;1.90;;;;;;;;;;4891310;29;20088;-67
2022/10/01 11:00:17;;;;;;;4.28;2.03;;;;;;;;;;4896430;29;20043;-63
2022/10/01 11:03:02;;;;;;;2.78;1.90;;;;;;;;;;4884628;29;20053;-64
2022/10/01 11:05:38;;;;;;;4.35;2.28;;;;;;;;;;4895932;29;20076;-61
2022/10/01 11:08:06;;;;;;;4.55;2.10;;;;;;;;;;4889927;29;20087;-61
2022/10/01 11:11:05;;;;;;;4.10;2.47;;;;;;;;;;4894829;29;20131;-63
2022/10/01 11:13:48;;;;;;;4.47;2.88;;;;;;;;;;4896632;29;20532;-62
2022/10/01 11:16:35;;;;;;;5.28;3.30;;;;;;;;;;4889868;29;20032;-63
2022/10/01 11:19:24;;;;;;;5.72;2.95;;;;;;;;;;4865569;29;20033;-65
2022/10/01 11:22:04;;;;;;;6.88;3.38;;;;;;;;;;4895016;29;20159;-65
2022/10/01 11:24:59;;;;;;;7.78;3.65;;;;;;;;;;4895736;29;20029;-62
2022/10/01 11:28:16;;;;;;;8.27;3.50;;;;;;;;;;4896917;29;20040;-69
2022/10/01 11:30:53;;;;;;;6.28;3.60;;;;;;;;;;4893613;29;20393;-67
2022/10/01 11:33:43;;;;;;;5.93;3.53;;;;;;;;;;4890035;29;20092;-65
2022/10/01 11:36:15;;;;;;;6.95;4.15;;;;;;;;;;4878212;29;20035;-64
2022/10/01 11:38:47;;;;;;;6.82;4.47;;;;;;;;;;4867948;29;20132;-64
2022/10/01 11:41:18;;;;;;;9.40;4.78;;;;;;;;;;4896876;29;20028;-64
2022/10/01 11:44:03;;;;;;;8.10;3.90;;;;;;;;;;4894591;29;20032;-63
2022/10/01 11:46:53;;;;;;;11.38;4.45;;;;;;;;;;4896451;29;20037;-62
2022/10/01 11:50:02;;;;;;;7.82;4.30;;;;;;;;;;4896063;29;20080;-64
2022/10/01 11:52:42;;;;;;;8.23;3.38;;;;;;;;;;4838115;29;20120;-61
2022/10/01 12:01:15;;;;;;;10.27;3.60;;;;;;;;;;4885892;29;20088;-63
2022/10/01 12:04:05;;;;;;;9.10;2.97;;;;;;;;;;4887668;29;20044;-63
2022/10/01 12:06:39;;;;;;;10.05;3.30;;;;;;;;;;4890508;29;20044;-61
2022/10/01 12:09:13;;;;;;;5.93;2.88;;;;;;;;;;4875806;29;20037;-64
2022/10/01 12:11:49;;;;;;;7.05;2.45;;;;;;;;;;4876816;29;20065;-64
2022/10/01 12:14:21;;;;;;;12.85;2.88;;;;;;;;;;4894117;29;20371;-63
2022/10/01 12:16:53;;;;;;;5.47;1.75;;;;;;;;;;4893738;29;20045;-62
2022/10/01 12:19:32;;;;;;;4.47;1.60;;;;;;;;;;4886963;29;20123;-63
2022/10/01 12:22:23;;;;;;;3.05;1.48;;;;;;;;;;4895071;29;20044;-63
2022/10/01 12:24:49;;;;;;;6.00;1.92;;;;;;;;;;4895312;29;20281;-63
2022/10/01 12:27:48;;;;;;;6.72;1.80;;;;;;;;;;4894825;29;20492;-65
2022/10/01 12:30:20;;;;;;;6.15;2.35;;;;;;;;;;4877369;29;20037;-61
2022/10/01 12:33:21;;;;;;;10.13;2.30;;;;;;;;;;4876455;29;20037;-62
2022/10/01 12:36:02;;;;;;;6.18;2.55;;;;;;;;;;4890421;29;20738;-61
2022/10/01 12:38:55;;;;;;;10.32;2.20;;;;;;;;;;4895041;29;20123;-61
2022/10/01 12:41:56;;;;;;;9.25;3.08;;;;;;;;;;4882871;29;20048;-61
2022/10/01 12:44:35;;;;;;;13.63;3.00;;;;;;;;;;4893107;29;20096;-61
2022/10/01 12:47:20;;;;;;;10.95;3.00;;;;;;;;;;4879803;29;20052;-61
2022/10/01 12:50:00;;;;;;;9.57;2.88;;;;;;;;;;4889460;29;20096;-61
2022/10/01 12:52:51;;;;;;;10.25;2.70;;;;;;;;;;4895324;29;20037;-62
2022/10/01 12:55:53;;;;;;;8.48;3.05;;;;;;;;;;4894204;29;20039;-63
2022/10/01 12:58:24;;;;;;;14.25;3.90;;;;;;;;;;4864098;29;20067;-63
2022/10/01 13:01:10;;;;;;;10.95;4.13;;;;;;;;;;4893947;29;20032;-63
2022/10/01 13:03:55;;;;;;;13.93;4.00;;;;;;;;;;4892484;29;20036;-62
2022/10/01 13:06:40;;;;;;;8.85;3.30;;;;;;;;;;4878657;29;20060;-63
2022/10/01 13:09:37;;;;;;;11.40;3.70;;;;;;;;;;4881450;29;20051;-64
2022/10/01 13:12:27;;;;;;;16.70;3.67;;;;;;;;;;4898843;29;20036;-64
2022/10/01 13:14:54;;;;;;;10.25;3.50;;;;;;;;;;4898352;29;20047;-64
2022/10/01 13:17:33;;;;;;;11.38;3.25;;;;;;;;;;4897986;29;20048;-65
2022/10/01 13:20:07;;;;;;;5.78;2.15;;;;;;;;;;4898068;29;20714;-64
2022/10/01 13:22:41;;;;;;;8.38;2.10;;;;;;;;;;4896760;29;20029;-64
2022/10/01 13:25:28;;;;;;;7.82;2.42;;;;;;;;;;4897055;29;20508;-65
2022/10/01 13:28:19;;;;;;;9.15;2.47;;;;;;;;;;4897766;29;20028;-65
2022/10/01 13:31:00;;;;;;;11.80;2.50;;;;;;;;;;4877549;29;20431;-66
2022/10/01 13:33:27;;;;;;;;;;;;;;;;;;4880860;29;20033;-65
2022/10/01 13:35:55;;;;;;;9.48;2.42;;;;;;;;;;4898093;29;19915;-66
2022/10/01 13:38:41;;;;;;;9.02;2.67;;;;;;;;;;4895472;29;20036;-65
2022/10/01 13:41:24;;;;;;;6.85;2.53;;;;;;;;;;4877100;29;20033;-66
2022/10/01 13:43:59;;;;;;;6.78;2.00;;;;;;;;;;4893776;29;20119;-65
2022/10/01 13:46:29;;;;;;;13.05;2.83;;;;;;;;;;4896843;29;20043;-64
2022/10/01 13:48:59;;;;;;;7.07;2.07;;;;;;;;;;4895268;29;20091;-65
2022/10/01 13:51:34;;;;;;;7.77;2.17;;;;;;;;;;4879917;29;20060;-66
2022/10/01 13:54:00;;;;;;;5.65;1.67;;;;;;;;;;4897582;29;20748;-63
2022/10/01 13:56:30;;;;;;;7.43;1.80;;;;;;;;;;4895906;29;20047;-64
2022/10/01 13:58:57;;;;;;;6.68;1.88;;;;;;;;;;4897438;29;20037;-66
2022/10/01 14:01:22;;;;;;;7.05;1.88;;;;;;;;;;4897634;29;20508;-63
2022/10/01 14:04:13;;;;;;;7.32;2.20;;;;;;;;;;4896650;29;20024;-66
2022/10/01 14:06:53;;;;;;;11.07;2.05;;;;;;;;;;4894756;29;20062;-66
2022/10/01 14:09:27;;;;;;;7.68;2.05;;;;;;;;;;4898358;29;20059;-69
2022/10/01 14:17:56;;;;;;;6.18;2.00;;;;;;;;;;4895542;29;20080;-71
2022/10/01 14:20:31;;;;;;;7.43;1.80;;;;;;;;;;4897254;29;20037;-68
2022/10/01 14:23:14;;;;;;;5.93;1.73;;;;;;;;;;4897880;29;20067;-67
2022/10/01 14:26:15;;;;;;;8.50;2.00;;;;;;;;;;4874592;29;20037;-66
2022/10/01 14:29:13;;;;;;;7.20;2.10;;;;;;;;;;4863382;29;20067;-65
2022/10/01 14:32:06;;;;;;;6.53;2.00;;;;;;;;;;4880369;29;20553;-64
2022/10/01 14:34:41;;;;;;;5.90;1.60;;;;;;;;;;4896964;29;20073;-62
2022/10/01 14:37:10;;;;;;;8.02;1.70;;;;;;;;;;4896750;29;20044;-64
2022/10/01 14:39:35;;;;;;;7.35;2.10;;;;;;;;;;4895581;29;20032;-64
2022/10/01 14:42:13;;;;;;;5.85;1.67;;;;;;;;;;4896648;29;20048;-65
2022/10/01 14:44:44;;;;;;;8.18;1.95;;;;;;;;;;4879590;29;20121;-62
2022/10/01 14:47:18;;;;;;;7.65;1.70;;;;;;;;;;4890840;29;20037;-65
2022/10/01 14:49:43;;;;;;;6.10;1.52;;;;;;;;;;4884181;29;20043;-64
2022/10/01 14:52:30;;;;;;;5.90;1.63;;;;;;;;;;4897406;29;20107;-64
2022/10/01 14:54:55;;;;;;;5.57;1.52;;;;;;;;;;4895534;29;20403;-63
2022/10/01 14:57:34;;;;;;;5.70;1.70;;;;;;;;;;4896810;29;20039;-65
2022/10/01 15:00:07;;;;;;;6.05;1.85;;;;;;;;;;4897342;29;20045;-65
2022/10/01 15:02:32;;;;;;;7.35;1.88;;;;;;;;;;4874663;29;20041;-64
2022/10/01 15:04:58;;;;;;;5.60;1.90;;;;;;;;;;4885865;29;20056;-65
2022/10/01 15:07:26;;;;;;;9.57;2.08;;;;;;;;;;4894113;29;20028;-65
2022/10/01 15:09:52;;;;;;;6.80;1.90;;;;;;;;;;4895310;29;20067;-65
2022/10/01 15:12:21;;;;;;;7.82;2.10;;;;;;;;;;4896873;29;20068;-65
2022/10/01 15:14:52;;;;;;;9.18;1.85;;;;;;;;;;4894727;29;20033;-68
2022/10/01 15:17:22;;;;;;;6.05;1.67;;;;;;;;;;4894118;29;20039;-65
2022/10/01 15:19:51;;;;;;;4.15;1.70;;;;;;;;;;4894941;29;20043;-64
2022/10/01 15:22:20;;;;;;;6.47;1.80;;;;;;;;;;4893235;29;20088;-66
2022/10/01 15:24:48;;;;;;;9.20;1.85;;;;;;;;;;4883949;29;20025;-67